createdAt,value
2023-05-21T00:00:21.653Z,26.40
2023-05-21T00:05:21.484Z,27.02
2023-05-21T00:10:20.902Z,28.40
2023-05-21T00:15:19.806Z,26.80
2023-05-21T00:20:18.628Z,31.55
2023-05-21T00:25:17.557Z,29.95
2023-05-21T00:30:17.168Z,27.35
2023-05-21T00:35:16.476Z,27.73
2023-05-21T00:40:16.358Z,30.08
2023-05-21T00:45:15.309Z,32.10
2023-05-21T00:50:15.228Z,30.95
2023-05-21T00:55:14.843Z,33.15
2023-05-21T01:00:14.826Z,29.88
2023-05-21T01:05:15.560Z,28.60
2023-05-21T01:10:14.621Z,29.27
2023-05-21T01:15:14.254Z,29.17
2023-05-21T01:20:14.591Z,29.85
2023-05-21T01:25:13.468Z,25.77
2023-05-21T01:30:13.474Z,29.75
2023-05-21T01:35:17.608Z,29.15
2023-05-21T01:40:38.856Z,26.23
2023-05-21T01:45:40.964Z,27.65
2023-05-21T01:50:41.707Z,28.55
2023-05-21T01:55:42.036Z,27.85
2023-05-21T02:00:41.408Z,26.20
2023-05-21T02:05:40.265Z,28.52
2023-05-21T02:10:39.201Z,27.88
2023-05-21T02:15:38.969Z,26.52
2023-05-21T02:20:37.891Z,27.67
2023-05-21T02:25:37.178Z,23.90
2023-05-21T02:30:36.578Z,27.80
2023-05-21T02:35:35.738Z,29.50
2023-05-21T02:40:35.086Z,28.27
2023-05-21T02:45:34.252Z,28.00
2023-05-21T02:50:33.316Z,28.75
2023-05-21T02:55:32.554Z,30.67
2023-05-21T03:00:31.510Z,27.02
2023-05-21T03:05:31.938Z,32.47
2023-05-21T03:10:30.770Z,28.13
2023-05-21T03:15:33.413Z,28.83
2023-05-21T03:20:32.798Z,33.78
2023-05-21T03:25:31.713Z,30.83
2023-05-21T03:30:30.599Z,31.08
2023-05-21T03:35:51.068Z,30.63
2023-05-21T03:40:50.352Z,28.67
2023-05-21T03:45:49.666Z,29.75
2023-05-21T03:51:07.891Z,28.42
2023-05-21T03:56:07.262Z,29.13
2023-05-21T04:01:08.644Z,30.90
2023-05-21T04:06:10.238Z,31.98
2023-05-21T04:11:10.761Z,28.48
2023-05-21T04:16:09.770Z,32.20
2023-05-21T04:21:08.776Z,28.02
2023-05-21T04:26:07.959Z,27.15
2023-05-21T04:31:08.628Z,25.20
2023-05-21T04:36:09.901Z,25.33
2023-05-21T04:41:10.846Z,25.52
2023-05-21T04:46:10.330Z,23.60
2023-05-21T04:51:10.251Z,24.05
2023-05-21T04:56:09.790Z,24.08
2023-05-21T05:01:09.141Z,22.98
2023-05-21T05:06:08.673Z,24.20
2023-05-21T05:11:07.722Z,29.38
2023-05-21T05:16:07.248Z,20.88
2023-05-21T05:21:06.416Z,20.02
2023-05-21T05:26:05.344Z,21.30
2023-05-21T05:31:04.860Z,20.55
2023-05-21T05:36:04.926Z,24.95
2023-05-21T05:41:03.928Z,20.55
2023-05-21T05:46:03.124Z,21.30
2023-05-21T05:51:02.070Z,22.10
2023-05-21T05:56:02.613Z,20.65
2023-05-21T06:01:03.129Z,19.95
2023-05-21T06:06:02.455Z,19.80
2023-05-21T06:11:02.919Z,19.23
2023-05-21T06:16:01.973Z,23.65
2023-05-21T06:21:01.660Z,18.48
2023-05-21T06:26:00.907Z,20.38
2023-05-21T06:31:00.124Z,21.17
2023-05-21T06:35:59.461Z,17.05
2023-05-21T06:40:58.667Z,17.27
2023-05-21T06:46:11.669Z,20.27
2023-05-21T06:51:12.822Z,19.35
2023-05-21T06:56:13.076Z,18.08
2023-05-21T07:01:14.715Z,18.05
2023-05-21T07:06:14.444Z,13.07
2023-05-21T07:11:13.464Z,16.88
2023-05-21T07:16:12.844Z,16.83
2023-05-21T07:21:12.917Z,18.75
2023-05-21T07:26:11.995Z,17.15
2023-05-21T07:31:12.398Z,18.33
2023-05-21T07:36:16.259Z,17.92
2023-05-21T07:41:17.880Z,17.42
2023-05-21T07:46:18.390Z,18.40
2023-05-21T07:51:19.829Z,20.55
2023-05-21T07:56:19.001Z,16.88
2023-05-21T08:01:18.227Z,15.73
2023-05-21T08:06:17.744Z,19.15
2023-05-21T08:11:17.891Z,15.88
2023-05-21T08:16:18.047Z,15.65
2023-05-21T08:21:17.631Z,21.92
2023-05-21T08:26:17.379Z,16.65
2023-05-21T08:31:18.808Z,17.48
2023-05-21T08:36:18.546Z,15.93
2023-05-21T08:41:25.038Z,16.67
2023-05-21T08:46:32.360Z,17.45
2023-05-21T08:51:31.480Z,15.05
2023-05-21T08:56:32.306Z,16.50
2023-05-21T09:01:33.557Z,17.75
2023-05-21T09:06:48.309Z,17.60
2023-05-21T09:11:51.748Z,15.13
2023-05-21T09:16:51.478Z,14.20
2023-05-21T09:21:52.869Z,17.02
2023-05-21T09:26:57.322Z,15.38
2023-05-21T09:31:56.202Z,15.13
2023-05-21T09:36:57.570Z,15.02
2023-05-21T09:41:58.121Z,15.70
2023-05-21T09:47:01.123Z,14.95
2023-05-21T09:52:00.887Z,14.45
2023-05-21T09:57:03.046Z,14.95
2023-05-21T10:07:01.560Z,13.25
2023-05-21T10:12:00.927Z,15.52
2023-05-21T10:17:01.124Z,13.68
2023-05-21T10:22:01.546Z,14.27
2023-05-21T10:27:02.235Z,14.25
2023-05-21T10:32:02.660Z,12.95
2023-05-21T10:37:03.519Z,14.10
2023-05-21T10:42:14.695Z,16.75
2023-05-21T10:47:16.304Z,14.70
2023-05-21T10:52:50.800Z,11.90
2023-05-21T10:58:23.719Z,12.18
2023-05-21T11:03:23.255Z,10.45
2023-05-21T11:08:35.920Z,9.20
2023-05-21T11:13:51.994Z,9.35
2023-05-21T11:18:50.893Z,11.00
2023-05-21T11:24:06.658Z,8.55
2023-05-21T11:29:06.218Z,9.68
2023-05-21T11:34:11.361Z,9.80
2023-05-21T11:39:22.080Z,9.93
2023-05-21T11:44:48.226Z,11.70
2023-05-21T11:49:47.251Z,8.77
2023-05-21T11:54:55.132Z,10.35
2023-05-21T11:59:53.949Z,11.20
2023-05-21T12:04:52.838Z,13.38
2023-05-21T12:09:52.055Z,12.20
2023-05-21T12:14:52.322Z,13.35
2023-05-21T12:19:53.608Z,15.13
2023-05-21T12:24:53.919Z,14.32
2023-05-21T12:29:53.601Z,15.05
2023-05-21T12:34:54.768Z,18.42
2023-05-21T12:39:55.344Z,15.55
2023-05-21T12:44:54.485Z,13.68
2023-05-21T12:49:58.093Z,13.73
2023-05-21T12:54:57.996Z,13.48
2023-05-21T12:59:59.066Z,12.30
2023-05-21T13:05:09.231Z,13.50
2023-05-21T13:10:08.794Z,15.93
2023-05-21T13:15:08.317Z,17.63
2023-05-21T13:20:18.422Z,15.70
2023-05-21T13:25:24.897Z,13.50
2023-05-21T13:30:24.134Z,13.63
2023-05-21T13:35:23.197Z,15.95
2023-05-21T13:40:22.324Z,16.55
2023-05-21T13:45:21.821Z,13.90
2023-05-21T13:50:20.664Z,14.65
2023-05-21T13:55:19.741Z,14.50
2023-05-21T14:00:18.632Z,12.20
2023-05-21T14:05:17.701Z,10.00
2023-05-21T14:10:17.060Z,10.40
2023-05-21T14:15:16.189Z,10.65
2023-05-21T14:20:15.334Z,11.38
2023-05-21T14:25:14.056Z,11.52
2023-05-21T14:30:13.080Z,13.88
2023-05-21T14:35:12.300Z,11.57
2023-05-21T14:40:11.646Z,9.48
2023-05-21T14:45:18.993Z,9.27
2023-05-21T14:50:18.705Z,9.75
2023-05-21T14:55:18.597Z,8.63
2023-05-21T15:00:17.470Z,7.97
2023-05-21T15:05:16.418Z,9.00
2023-05-21T15:10:17.243Z,8.02
2023-05-21T15:15:18.054Z,10.75
2023-05-21T15:20:17.850Z,11.75
2023-05-21T15:25:19.228Z,9.50
2023-05-21T15:30:17.979Z,10.48
2023-05-21T15:35:16.994Z,9.98
2023-05-21T15:40:16.092Z,9.13
2023-05-21T15:45:15.026Z,8.75
2023-05-21T15:50:14.203Z,9.25
2023-05-21T15:55:14.234Z,9.73
2023-05-21T16:00:13.966Z,9.00
2023-05-21T16:05:12.977Z,6.43
2023-05-21T16:10:11.936Z,6.53
2023-05-21T16:15:11.102Z,7.65
2023-05-21T16:20:10.423Z,7.22
2023-05-21T16:25:09.566Z,8.20
2023-05-21T16:30:08.823Z,7.80
2023-05-21T16:35:08.186Z,8.77
2023-05-21T16:40:07.591Z,7.07
2023-05-21T16:45:07.104Z,7.53
2023-05-21T16:50:09.488Z,8.55
2023-05-21T16:55:12.508Z,8.25
2023-05-21T17:00:13.971Z,7.32
2023-05-21T17:05:13.257Z,7.00
2023-05-21T17:10:12.515Z,7.85
2023-05-21T17:15:11.554Z,8.45
2023-05-21T17:20:11.317Z,8.50
2023-05-21T17:25:10.459Z,6.68
2023-05-21T17:30:10.411Z,8.75
2023-05-21T17:35:10.428Z,8.48
2023-05-21T17:40:10.096Z,7.25
2023-05-21T17:45:09.293Z,8.18
2023-05-21T17:50:08.781Z,6.95
2023-05-21T17:55:08.179Z,8.43
2023-05-21T18:00:07.828Z,8.05
2023-05-21T18:05:12.923Z,8.50
2023-05-21T18:10:12.034Z,7.35
2023-05-21T18:15:11.276Z,7.90
2023-05-21T18:20:10.882Z,8.90
2023-05-21T18:25:10.795Z,8.55
2023-05-21T18:30:09.938Z,8.38
2023-05-21T18:35:14.305Z,8.23
2023-05-21T18:40:15.184Z,7.72
2023-05-21T18:45:14.668Z,9.07
2023-05-21T18:50:16.519Z,8.57
2023-05-21T19:00:14.681Z,9.43
2023-05-21T19:05:13.722Z,8.95
2023-05-21T19:10:13.328Z,12.23
2023-05-21T19:15:12.525Z,8.48
2023-05-21T19:20:23.169Z,7.68
2023-05-21T19:25:22.102Z,8.90
2023-05-21T19:30:23.848Z,7.60
2023-05-21T19:35:25.704Z,9.60
2023-05-21T19:40:25.480Z,7.80
2023-05-21T19:45:25.459Z,10.13
2023-05-21T19:50:24.717Z,10.35
2023-05-21T19:55:24.829Z,9.52
2023-05-21T20:00:24.066Z,12.55
2023-05-21T20:05:22.870Z,9.18
2023-05-21T20:10:23.115Z,7.03
2023-05-21T20:15:21.974Z,10.32
2023-05-21T20:20:22.969Z,9.15
2023-05-21T20:25:21.975Z,12.75
2023-05-21T20:30:20.907Z,8.35
2023-05-21T20:35:19.886Z,9.07
2023-05-21T20:40:19.066Z,9.30
2023-05-21T20:45:17.935Z,8.77
2023-05-21T20:50:17.825Z,7.30
2023-05-21T20:55:16.941Z,9.48
2023-05-21T21:00:16.348Z,9.27
2023-05-21T21:05:16.442Z,9.57
2023-05-21T21:10:15.613Z,10.02
2023-05-21T21:15:14.988Z,7.57
2023-05-21T21:20:14.765Z,11.52
2023-05-21T21:25:14.151Z,13.93
2023-05-21T21:30:13.244Z,11.23
2023-05-21T21:35:12.261Z,10.00
2023-05-21T21:40:11.630Z,12.00
2023-05-21T21:45:10.939Z,10.35
2023-05-21T21:50:10.206Z,10.90
2023-05-21T21:55:12.611Z,11.05
2023-05-21T22:00:15.762Z,10.00
2023-05-21T22:05:15.015Z,10.13
2023-05-21T22:10:15.309Z,10.50
2023-05-21T22:15:25.008Z,11.07
2023-05-21T22:20:23.862Z,9.65
2023-05-21T22:25:22.874Z,10.68
2023-05-21T22:30:21.760Z,11.63
2023-05-21T22:35:20.669Z,13.30
2023-05-21T22:40:19.539Z,11.82
2023-05-21T22:45:19.294Z,10.25
2023-05-21T22:50:18.389Z,10.82
2023-05-21T22:55:17.341Z,10.02
2023-05-21T23:00:19.141Z,9.45
2023-05-21T23:05:18.270Z,13.18
2023-05-21T23:10:17.250Z,11.98
2023-05-21T23:15:16.462Z,9.55
2023-05-21T23:20:15.515Z,12.52
2023-05-21T23:25:14.422Z,13.35
2023-05-21T23:30:13.331Z,10.63
2023-05-21T23:35:14.402Z,11.63
2023-05-21T23:40:13.306Z,10.27
2023-05-21T23:45:12.303Z,10.77
2023-05-21T23:50:11.211Z,12.40
2023-05-21T23:55:12.761Z,11.13
